sensor_id;sensor_type;location;lat;lon;timestamp;temperature;humidity
10294;DHT22;5192;50.328;7.610;2023-03-17T00:01:55;7.90;1.00
10294;DHT22;5192;50.328;7.610;2023-03-17T00:04:22;7.80;1.00
10294;DHT22;5192;50.328;7.610;2023-03-17T00:06:50;7.80;1.00
10294;DHT22;5192;50.328;7.610;2023-03-17T00:09:19;7.90;1.00
10294;DHT22;5192;50.328;7.610;2023-03-17T00:11:49;7.90;1.00
10294;DHT22;5192;50.328;7.610;2023-03-17T00:14:15;7.90;1.00
10294;DHT22;5192;50.328;7.610;2023-03-17T00:16:48;8.00;1.00
10294;DHT22;5192;50.328;7.610;2023-03-17T00:19:32;8.00;1.00
10294;DHT22;5192;50.328;7.610;2023-03-17T00:22:02;8.00;1.00
10294;DHT22;5192;50.328;7.610;2023-03-17T00:24:32;7.90;1.00
10294;DHT22;5192;50.328;7.610;2023-03-17T00:27:13;7.90;1.00
10294;DHT22;5192;50.328;7.610;2023-03-17T00:29:40;7.90;1.00
10294;DHT22;5192;50.328;7.610;2023-03-17T00:32:16;7.90;1.00
10294;DHT22;5192;50.328;7.610;2023-03-17T00:34:46;7.90;1.00
10294;DHT22;5192;50.328;7.610;2023-03-17T00:37:14;7.90;1.00
10294;DHT22;5192;50.328;7.610;2023-03-17T00:39:41;7.80;1.00
10294;DHT22;5192;50.328;7.610;2023-03-17T00:42:09;8.00;1.00
10294;DHT22;5192;50.328;7.610;2023-03-17T00:44:37;7.90;1.00
10294;DHT22;5192;50.328;7.610;2023-03-17T00:47:07;7.80;1.00
10294;DHT22;5192;50.328;7.610;2023-03-17T00:49:36;7.90;1.00
10294;DHT22;5192;50.328;7.610;2023-03-17T00:52:05;7.80;1.00
10294;DHT22;5192;50.328;7.610;2023-03-17T00:54:31;7.70;1.00
10294;DHT22;5192;50.328;7.610;2023-03-17T00:56:58;7.70;1.00
10294;DHT22;5192;50.328;7.610;2023-03-17T00:59:27;7.70;1.00
10294;DHT22;5192;50.328;7.610;2023-03-17T01:01:58;7.90;1.00
10294;DHT22;5192;50.328;7.610;2023-03-17T01:04:25;7.70;1.00
10294;DHT22;5192;50.328;7.610;2023-03-17T01:06:52;7.70;1.00
10294;DHT22;5192;50.328;7.610;2023-03-17T01:09:24;7.60;1.00
10294;DHT22;5192;50.328;7.610;2023-03-17T01:11:52;7.60;1.00
10294;DHT22;5192;50.328;7.610;2023-03-17T01:14:21;7.60;1.00
10294;DHT22;5192;50.328;7.610;2023-03-17T01:16:52;7.60;1.00
10294;DHT22;5192;50.328;7.610;2023-03-17T01:19:21;7.60;1.00
10294;DHT22;5192;50.328;7.610;2023-03-17T01:21:49;7.60;1.00
10294;DHT22;5192;50.328;7.610;2023-03-17T01:24:15;7.60;1.00
10294;DHT22;5192;50.328;7.610;2023-03-17T01:26:42;7.60;1.00
10294;DHT22;5192;50.328;7.610;2023-03-17T01:29:10;7.60;1.00
10294;DHT22;5192;50.328;7.610;2023-03-17T01:31:38;7.50;1.00
10294;DHT22;5192;50.328;7.610;2023-03-17T01:34:03;7.50;1.00
10294;DHT22;5192;50.328;7.610;2023-03-17T01:36:33;7.50;1.00
10294;DHT22;5192;50.328;7.610;2023-03-17T01:39:01;7.50;1.00
10294;DHT22;5192;50.328;7.610;2023-03-17T01:41:35;7.40;1.00
10294;DHT22;5192;50.328;7.610;2023-03-17T01:44:03;7.40;1.00
10294;DHT22;5192;50.328;7.610;2023-03-17T01:46:31;7.40;1.00
10294;DHT22;5192;50.328;7.610;2023-03-17T01:49:24;7.40;1.00
10294;DHT22;5192;50.328;7.610;2023-03-17T01:52:20;7.40;1.00
10294;DHT22;5192;50.328;7.610;2023-03-17T01:54:53;7.40;1.00
10294;DHT22;5192;50.328;7.610;2023-03-17T01:57:32;7.40;1.00
10294;DHT22;5192;50.328;7.610;2023-03-17T02:00:19;7.40;1.00
10294;DHT22;5192;50.328;7.610;2023-03-17T02:02:48;7.40;1.00
10294;DHT22;5192;50.328;7.610;2023-03-17T02:05:20;7.40;1.00
10294;DHT22;5192;50.328;7.610;2023-03-17T02:07:48;7.50;1.00
10294;DHT22;5192;50.328;7.610;2023-03-17T02:10:18;7.40;1.00
10294;DHT22;5192;50.328;7.610;2023-03-17T02:12:50;7.50;1.00
10294;DHT22;5192;50.328;7.610;2023-03-17T02:15:18;7.50;1.00
10294;DHT22;5192;50.328;7.610;2023-03-17T02:17:46;7.50;1.00
10294;DHT22;5192;50.328;7.610;2023-03-17T02:22:54;7.60;1.00
10294;DHT22;5192;50.328;7.610;2023-03-17T02:25:25;7.50;1.00
10294;DHT22;5192;50.328;7.610;2023-03-17T02:28:01;7.50;1.00
10294;DHT22;5192;50.328;7.610;2023-03-17T02:30:31;7.50;1.00
10294;DHT22;5192;50.328;7.610;2023-03-17T02:33:01;7.50;1.00
10294;DHT22;5192;50.328;7.610;2023-03-17T02:35:29;7.50;1.00
10294;DHT22;5192;50.328;7.610;2023-03-17T02:37:58;7.40;1.00
10294;DHT22;5192;50.328;7.610;2023-03-17T02:40:25;7.40;1.00
10294;DHT22;5192;50.328;7.610;2023-03-17T02:42:52;7.30;1.00
10294;DHT22;5192;50.328;7.610;2023-03-17T02:45:19;7.30;1.00
10294;DHT22;5192;50.328;7.610;2023-03-17T02:47:48;7.30;1.00
10294;DHT22;5192;50.328;7.610;2023-03-17T02:50:24;7.30;1.00
10294;DHT22;5192;50.328;7.610;2023-03-17T02:52:54;7.30;1.00
10294;DHT22;5192;50.328;7.610;2023-03-17T02:55:20;7.30;1.00
10294;DHT22;5192;50.328;7.610;2023-03-17T02:57:47;7.20;1.00
10294;DHT22;5192;50.328;7.610;2023-03-17T03:00:15;7.20;1.00
10294;DHT22;5192;50.328;7.610;2023-03-17T03:02:41;7.10;1.00
10294;DHT22;5192;50.328;7.610;2023-03-17T03:05:09;7.10;1.00
10294;DHT22;5192;50.328;7.610;2023-03-17T03:07:37;7.10;1.00
10294;DHT22;5192;50.328;7.610;2023-03-17T03:10:06;7.10;1.00
10294;DHT22;5192;50.328;7.610;2023-03-17T03:12:34;7.10;1.00
10294;DHT22;5192;50.328;7.610;2023-03-17T03:15:02;7.00;1.00
10294;DHT22;5192;50.328;7.610;2023-03-17T03:17:30;7.00;1.00
10294;DHT22;5192;50.328;7.610;2023-03-17T03:19:56;7.00;1.00
10294;DHT22;5192;50.328;7.610;2023-03-17T03:22:23;7.00;1.00
10294;DHT22;5192;50.328;7.610;2023-03-17T03:24:50;6.90;1.00
10294;DHT22;5192;50.328;7.610;2023-03-17T03:27:17;6.90;1.00
10294;DHT22;5192;50.328;7.610;2023-03-17T03:29:44;6.90;1.00
10294;DHT22;5192;50.328;7.610;2023-03-17T03:32:11;6.80;1.00
10294;DHT22;5192;50.328;7.610;2023-03-17T03:34:37;6.90;1.00
10294;DHT22;5192;50.328;7.610;2023-03-17T03:37:05;6.90;1.00
10294;DHT22;5192;50.328;7.610;2023-03-17T03:39:34;6.90;1.00
10294;DHT22;5192;50.328;7.610;2023-03-17T03:42:01;6.90;1.00
10294;DHT22;5192;50.328;7.610;2023-03-17T03:44:29;6.90;1.00
10294;DHT22;5192;50.328;7.610;2023-03-17T03:46:56;6.90;1.00
10294;DHT22;5192;50.328;7.610;2023-03-17T03:49:23;7.10;1.00
10294;DHT22;5192;50.328;7.610;2023-03-17T03:51:50;6.90;1.00
10294;DHT22;5192;50.328;7.610;2023-03-17T03:54:18;6.90;1.00
10294;DHT22;5192;50.328;7.610;2023-03-17T03:56:45;6.90;1.00
10294;DHT22;5192;50.328;7.610;2023-03-17T03:59:11;6.90;1.00
10294;DHT22;5192;50.328;7.610;2023-03-17T04:01:38;6.80;1.00
10294;DHT22;5192;50.328;7.610;2023-03-17T04:04:06;6.90;1.00
10294;DHT22;5192;50.328;7.610;2023-03-17T04:06:33;6.80;1.00
10294;DHT22;5192;50.328;7.610;2023-03-17T04:09:01;6.90;1.00
10294;DHT22;5192;50.328;7.610;2023-03-17T04:11:28;6.80;1.00
10294;DHT22;5192;50.328;7.610;2023-03-17T04:13:57;6.70;1.00
10294;DHT22;5192;50.328;7.610;2023-03-17T04:16:22;6.70;1.00
10294;DHT22;5192;50.328;7.610;2023-03-17T04:18:49;6.70;1.00
10294;DHT22;5192;50.328;7.610;2023-03-17T04:21:17;6.90;1.00
10294;DHT22;5192;50.328;7.610;2023-03-17T04:23:46;6.60;1.00
10294;DHT22;5192;50.328;7.610;2023-03-17T04:26:13;6.70;1.00
10294;DHT22;5192;50.328;7.610;2023-03-17T04:28:43;6.70;1.00
10294;DHT22;5192;50.328;7.610;2023-03-17T04:31:14;6.60;1.00
10294;DHT22;5192;50.328;7.610;2023-03-17T04:33:41;6.60;1.00
10294;DHT22;5192;50.328;7.610;2023-03-17T04:36:22;6.60;1.00
10294;DHT22;5192;50.328;7.610;2023-03-17T04:38:51;6.50;1.00
10294;DHT22;5192;50.328;7.610;2023-03-17T04:41:18;6.50;1.00
10294;DHT22;5192;50.328;7.610;2023-03-17T04:43:46;6.60;1.00
10294;DHT22;5192;50.328;7.610;2023-03-17T04:46:12;6.60;1.00
10294;DHT22;5192;50.328;7.610;2023-03-17T04:48:40;6.40;1.00
10294;DHT22;5192;50.328;7.610;2023-03-17T04:51:07;6.40;1.00
10294;DHT22;5192;50.328;7.610;2023-03-17T04:53:35;6.40;1.00
10294;DHT22;5192;50.328;7.610;2023-03-17T04:56:03;6.40;1.00
10294;DHT22;5192;50.328;7.610;2023-03-17T04:58:30;6.40;1.00
10294;DHT22;5192;50.328;7.610;2023-03-17T05:00:57;6.40;1.00
10294;DHT22;5192;50.328;7.610;2023-03-17T05:03:26;6.30;1.00
10294;DHT22;5192;50.328;7.610;2023-03-17T05:05:55;6.50;1.00
10294;DHT22;5192;50.328;7.610;2023-03-17T05:08:23;6.40;1.00
10294;DHT22;5192;50.328;7.610;2023-03-17T05:10:50;6.30;1.00
10294;DHT22;5192;50.328;7.610;2023-03-17T05:13:19;6.30;1.00
10294;DHT22;5192;50.328;7.610;2023-03-17T05:15:46;6.30;1.00
10294;DHT22;5192;50.328;7.610;2023-03-17T05:18:15;6.40;1.00
10294;DHT22;5192;50.328;7.610;2023-03-17T05:20:48;6.20;1.00
10294;DHT22;5192;50.328;7.610;2023-03-17T05:23:13;6.20;1.00
10294;DHT22;5192;50.328;7.610;2023-03-17T05:25:40;6.20;1.00
10294;DHT22;5192;50.328;7.610;2023-03-17T05:28:09;6.10;1.00
10294;DHT22;5192;50.328;7.610;2023-03-17T05:30:36;6.10;1.00
10294;DHT22;5192;50.328;7.610;2023-03-17T05:33:03;6.10;1.00
10294;DHT22;5192;50.328;7.610;2023-03-17T05:35:30;6.10;1.00
10294;DHT22;5192;50.328;7.610;2023-03-17T05:37:58;6.10;1.00
10294;DHT22;5192;50.328;7.610;2023-03-17T05:40:26;6.10;1.00
10294;DHT22;5192;50.328;7.610;2023-03-17T05:42:53;6.10;1.00
10294;DHT22;5192;50.328;7.610;2023-03-17T05:45:18;6.10;1.00
10294;DHT22;5192;50.328;7.610;2023-03-17T05:47:47;6.10;1.00
10294;DHT22;5192;50.328;7.610;2023-03-17T05:50:14;6.10;1.00
10294;DHT22;5192;50.328;7.610;2023-03-17T05:52:40;6.10;1.00
10294;DHT22;5192;50.328;7.610;2023-03-17T05:55:07;6.10;1.00
10294;DHT22;5192;50.328;7.610;2023-03-17T05:57:34;6.20;1.00
10294;DHT22;5192;50.328;7.610;2023-03-17T06:00:03;6.20;1.00
10294;DHT22;5192;50.328;7.610;2023-03-17T06:02:32;6.20;1.00
10294;DHT22;5192;50.328;7.610;2023-03-17T06:05:01;6.20;1.00
10294;DHT22;5192;50.328;7.610;2023-03-17T06:07:28;6.20;1.00
10294;DHT22;5192;50.328;7.610;2023-03-17T06:09:55;6.20;1.00
10294;DHT22;5192;50.328;7.610;2023-03-17T06:12:22;6.20;1.00
10294;DHT22;5192;50.328;7.610;2023-03-17T06:14:50;6.20;1.00
10294;DHT22;5192;50.328;7.610;2023-03-17T06:17:17;6.20;1.00
10294;DHT22;5192;50.328;7.610;2023-03-17T06:19:45;6.30;1.00
10294;DHT22;5192;50.328;7.610;2023-03-17T06:22:11;6.30;1.00
10294;DHT22;5192;50.328;7.610;2023-03-17T06:24:38;6.30;1.00
10294;DHT22;5192;50.328;7.610;2023-03-17T06:27:05;6.30;1.00
10294;DHT22;5192;50.328;7.610;2023-03-17T06:29:34;6.30;1.00
10294;DHT22;5192;50.328;7.610;2023-03-17T06:32:00;6.30;1.00
10294;DHT22;5192;50.328;7.610;2023-03-17T06:34:27;6.40;1.00
10294;DHT22;5192;50.328;7.610;2023-03-17T06:36:55;6.40;1.00
10294;DHT22;5192;50.328;7.610;2023-03-17T06:39:22;6.40;1.00
10294;DHT22;5192;50.328;7.610;2023-03-17T06:41:50;6.40;1.00
10294;DHT22;5192;50.328;7.610;2023-03-17T06:44:17;6.50;1.00
10294;DHT22;5192;50.328;7.610;2023-03-17T06:46:43;6.50;1.00
10294;DHT22;5192;50.328;7.610;2023-03-17T06:49:10;6.50;1.00
10294;DHT22;5192;50.328;7.610;2023-03-17T06:51:39;6.60;1.00
10294;DHT22;5192;50.328;7.610;2023-03-17T06:54:06;6.70;1.00
10294;DHT22;5192;50.328;7.610;2023-03-17T06:56:34;6.90;1.00
10294;DHT22;5192;50.328;7.610;2023-03-17T06:59:03;6.80;1.00
10294;DHT22;5192;50.328;7.610;2023-03-17T07:01:31;6.80;1.00
10294;DHT22;5192;50.328;7.610;2023-03-17T07:03:59;6.80;1.00
10294;DHT22;5192;50.328;7.610;2023-03-17T07:06:28;6.80;1.00
10294;DHT22;5192;50.328;7.610;2023-03-17T07:08:55;6.90;1.00
10294;DHT22;5192;50.328;7.610;2023-03-17T07:11:24;7.00;1.00
10294;DHT22;5192;50.328;7.610;2023-03-17T07:13:53;7.00;1.00
10294;DHT22;5192;50.328;7.610;2023-03-17T07:16:21;7.10;1.00
10294;DHT22;5192;50.328;7.610;2023-03-17T07:18:47;7.20;1.00
10294;DHT22;5192;50.328;7.610;2023-03-17T07:21:15;7.30;1.00
10294;DHT22;5192;50.328;7.610;2023-03-17T07:23:42;7.30;1.00
10294;DHT22;5192;50.328;7.610;2023-03-17T07:26:09;7.40;1.00
10294;DHT22;5192;50.328;7.610;2023-03-17T07:28:37;7.50;1.00
10294;DHT22;5192;50.328;7.610;2023-03-17T07:31:06;7.70;1.00
10294;DHT22;5192;50.328;7.610;2023-03-17T07:33:53;7.60;1.00
10294;DHT22;5192;50.328;7.610;2023-03-17T07:36:21;7.70;1.00
10294;DHT22;5192;50.328;7.610;2023-03-17T07:38:47;7.80;1.00
10294;DHT22;5192;50.328;7.610;2023-03-17T07:41:15;7.80;1.00
10294;DHT22;5192;50.328;7.610;2023-03-17T07:43:42;8.00;1.00
10294;DHT22;5192;50.328;7.610;2023-03-17T07:46:09;8.10;1.00
10294;DHT22;5192;50.328;7.610;2023-03-17T07:48:37;8.10;1.00
10294;DHT22;5192;50.328;7.610;2023-03-17T07:51:19;8.20;1.00
10294;DHT22;5192;50.328;7.610;2023-03-17T07:53:48;8.30;1.00
10294;DHT22;5192;50.328;7.610;2023-03-17T07:56:17;8.40;1.00
10294;DHT22;5192;50.328;7.610;2023-03-17T07:58:44;8.50;1.00
10294;DHT22;5192;50.328;7.610;2023-03-17T08:01:10;8.60;1.00
10294;DHT22;5192;50.328;7.610;2023-03-17T08:03:36;8.60;1.00
10294;DHT22;5192;50.328;7.610;2023-03-17T08:06:03;8.70;1.00
10294;DHT22;5192;50.328;7.610;2023-03-17T08:08:32;8.80;1.00
10294;DHT22;5192;50.328;7.610;2023-03-17T08:11:01;8.90;1.00
10294;DHT22;5192;50.328;7.610;2023-03-17T08:13:34;9.00;1.00
10294;DHT22;5192;50.328;7.610;2023-03-17T08:16:02;9.10;1.00
10294;DHT22;5192;50.328;7.610;2023-03-17T08:18:29;9.30;1.00
10294;DHT22;5192;50.328;7.610;2023-03-17T08:20:56;9.40;1.00
10294;DHT22;5192;50.328;7.610;2023-03-17T08:23:24;9.40;1.00
10294;DHT22;5192;50.328;7.610;2023-03-17T08:26:00;9.50;1.00
10294;DHT22;5192;50.328;7.610;2023-03-17T08:28:35;9.70;1.00
10294;DHT22;5192;50.328;7.610;2023-03-17T08:31:13;9.80;1.00
10294;DHT22;5192;50.328;7.610;2023-03-17T08:33:58;9.80;1.00
10294;DHT22;5192;50.328;7.610;2023-03-17T08:36:27;9.80;1.00
10294;DHT22;5192;50.328;7.610;2023-03-17T08:38:54;9.80;1.00
10294;DHT22;5192;50.328;7.610;2023-03-17T08:41:24;9.80;1.00
10294;DHT22;5192;50.328;7.610;2023-03-17T08:43:53;9.90;1.00
10294;DHT22;5192;50.328;7.610;2023-03-17T08:46:33;10.00;1.00
10294;DHT22;5192;50.328;7.610;2023-03-17T08:48:59;10.00;1.00
10294;DHT22;5192;50.328;7.610;2023-03-17T08:51:29;10.10;1.00
10294;DHT22;5192;50.328;7.610;2023-03-17T08:53:56;10.20;1.00
10294;DHT22;5192;50.328;7.610;2023-03-17T08:56:27;10.30;1.00
10294;DHT22;5192;50.328;7.610;2023-03-17T08:58:52;10.40;1.00
10294;DHT22;5192;50.328;7.610;2023-03-17T09:01:19;10.30;1.00
10294;DHT22;5192;50.328;7.610;2023-03-17T09:03:47;10.60;1.00
10294;DHT22;5192;50.328;7.610;2023-03-17T09:06:14;10.70;1.00
10294;DHT22;5192;50.328;7.610;2023-03-17T09:08:42;10.70;1.00
10294;DHT22;5192;50.328;7.610;2023-03-17T09:11:17;10.80;1.00
10294;DHT22;5192;50.328;7.610;2023-03-17T09:13:45;10.90;1.00
10294;DHT22;5192;50.328;7.610;2023-03-17T09:16:12;11.00;1.00
10294;DHT22;5192;50.328;7.610;2023-03-17T09:18:41;11.10;1.00
10294;DHT22;5192;50.328;7.610;2023-03-17T09:21:14;11.30;1.00
10294;DHT22;5192;50.328;7.610;2023-03-17T09:23:41;11.50;1.00
10294;DHT22;5192;50.328;7.610;2023-03-17T09:26:09;11.50;1.00
10294;DHT22;5192;50.328;7.610;2023-03-17T09:28:37;11.60;1.00
10294;DHT22;5192;50.328;7.610;2023-03-17T09:31:07;11.60;1.00
10294;DHT22;5192;50.328;7.610;2023-03-17T09:33:39;11.70;1.00
10294;DHT22;5192;50.328;7.610;2023-03-17T09:36:09;11.70;1.00
10294;DHT22;5192;50.328;7.610;2023-03-17T09:38:37;11.70;1.00
10294;DHT22;5192;50.328;7.610;2023-03-17T09:44:48;11.80;1.00
10294;DHT22;5192;50.328;7.610;2023-03-17T09:50:56;12.20;1.00
10294;DHT22;5192;50.328;7.610;2023-03-17T09:56:48;12.10;1.00
10294;DHT22;5192;50.328;7.610;2023-03-17T09:59:32;12.30;1.00
10294;DHT22;5192;50.328;7.610;2023-03-17T10:02:00;12.30;1.00
10294;DHT22;5192;50.328;7.610;2023-03-17T10:04:26;12.60;1.00
10294;DHT22;5192;50.328;7.610;2023-03-17T10:07:01;12.70;1.00
10294;DHT22;5192;50.328;7.610;2023-03-17T10:09:44;12.80;1.00
10294;DHT22;5192;50.328;7.610;2023-03-17T10:12:37;12.70;1.00
10294;DHT22;5192;50.328;7.610;2023-03-17T10:15:50;12.80;1.00
10294;DHT22;5192;50.328;7.610;2023-03-17T10:18:23;12.80;1.00
10294;DHT22;5192;50.328;7.610;2023-03-17T10:20:54;13.00;1.00
10294;DHT22;5192;50.328;7.610;2023-03-17T10:23:31;13.00;1.00
10294;DHT22;5192;50.328;7.610;2023-03-17T10:26:33;13.20;1.00
10294;DHT22;5192;50.328;7.610;2023-03-17T10:29:12;13.10;1.00
10294;DHT22;5192;50.328;7.610;2023-03-17T10:31:39;13.00;1.00
10294;DHT22;5192;50.328;7.610;2023-03-17T10:34:31;13.20;1.00
10294;DHT22;5192;50.328;7.610;2023-03-17T10:37:19;13.20;1.00
10294;DHT22;5192;50.328;7.610;2023-03-17T10:39:58;13.50;1.00
10294;DHT22;5192;50.328;7.610;2023-03-17T10:42:46;13.60;1.00
10294;DHT22;5192;50.328;7.610;2023-03-17T10:45:22;13.80;1.00
10294;DHT22;5192;50.328;7.610;2023-03-17T10:47:54;14.00;1.00
10294;DHT22;5192;50.328;7.610;2023-03-17T10:50:33;14.20;1.00
10294;DHT22;5192;50.328;7.610;2023-03-17T10:55:41;14.10;1.00
10294;DHT22;5192;50.328;7.610;2023-03-17T10:58:15;14.00;1.00
10294;DHT22;5192;50.328;7.610;2023-03-17T11:01:27;14.00;1.00
10294;DHT22;5192;50.328;7.610;2023-03-17T11:04:24;14.20;1.00
10294;DHT22;5192;50.328;7.610;2023-03-17T11:06:55;14.50;1.00
10294;DHT22;5192;50.328;7.610;2023-03-17T11:09:23;14.20;1.00
10294;DHT22;5192;50.328;7.610;2023-03-17T11:12:07;14.40;1.00
10294;DHT22;5192;50.328;7.610;2023-03-17T11:14:45;14.40;1.00
10294;DHT22;5192;50.328;7.610;2023-03-17T11:20:52;14.80;1.00
10294;DHT22;5192;50.328;7.610;2023-03-17T11:32:31;14.80;1.00
10294;DHT22;5192;50.328;7.610;2023-03-17T11:35:27;15.00;1.00
10294;DHT22;5192;50.328;7.610;2023-03-17T11:46:50;14.30;1.00
10294;DHT22;5192;50.328;7.610;2023-03-17T11:49:39;14.40;1.00
10294;DHT22;5192;50.328;7.610;2023-03-17T11:58:49;14.50;1.00
10294;DHT22;5192;50.328;7.610;2023-03-17T12:01:26;14.70;1.00
10294;DHT22;5192;50.328;7.610;2023-03-17T12:07:03;14.60;1.00
10294;DHT22;5192;50.328;7.610;2023-03-17T12:10:12;14.80;1.00
10294;DHT22;5192;50.328;7.610;2023-03-17T12:12:50;15.00;1.00
10294;DHT22;5192;50.328;7.610;2023-03-17T12:18:53;15.10;1.00
10294;DHT22;5192;50.328;7.610;2023-03-17T12:21:47;15.20;1.00
10294;DHT22;5192;50.328;7.610;2023-03-17T12:27:22;15.00;1.00
10294;DHT22;5192;50.328;7.610;2023-03-17T12:32:48;15.70;1.00
10294;DHT22;5192;50.328;7.610;2023-03-17T12:35:39;15.40;1.00
10294;DHT22;5192;50.328;7.610;2023-03-17T12:38:37;15.40;1.00
10294;DHT22;5192;50.328;7.610;2023-03-17T12:41:32;15.30;1.00
10294;DHT22;5192;50.328;7.610;2023-03-17T12:53:35;15.30;1.00
10294;DHT22;5192;50.328;7.610;2023-03-17T12:58:52;15.00;1.00
10294;DHT22;5192;50.328;7.610;2023-03-17T13:01:37;15.40;1.00
10294;DHT22;5192;50.328;7.610;2023-03-17T13:04:30;15.50;1.00
10294;DHT22;5192;50.328;7.610;2023-03-17T13:07:45;15.60;1.00
10294;DHT22;5192;50.328;7.610;2023-03-17T13:10:40;15.40;1.00
10294;DHT22;5192;50.328;7.610;2023-03-17T13:13:21;15.60;1.00
10294;DHT22;5192;50.328;7.610;2023-03-17T13:16:00;15.60;1.00
10294;DHT22;5192;50.328;7.610;2023-03-17T13:18:44;15.50;1.00
10294;DHT22;5192;50.328;7.610;2023-03-17T13:21:17;15.50;1.00
10294;DHT22;5192;50.328;7.610;2023-03-17T13:23:59;15.50;1.00
10294;DHT22;5192;50.328;7.610;2023-03-17T13:27:01;15.40;1.00
10294;DHT22;5192;50.328;7.610;2023-03-17T13:32:38;15.20;1.00
10294;DHT22;5192;50.328;7.610;2023-03-17T13:35:17;15.20;1.00
10294;DHT22;5192;50.328;7.610;2023-03-17T13:38:30;15.20;1.00
10294;DHT22;5192;50.328;7.610;2023-03-17T13:49:36;15.10;1.00
10294;DHT22;5192;50.328;7.610;2023-03-17T13:53:00;15.10;1.00
10294;DHT22;5192;50.328;7.610;2023-03-17T14:00:38;15.10;1.00
10294;DHT22;5192;50.328;7.610;2023-03-17T14:03:09;15.20;1.00
10294;DHT22;5192;50.328;7.610;2023-03-17T14:05:37;15.30;1.00
10294;DHT22;5192;50.328;7.610;2023-03-17T14:08:22;15.30;1.00
10294;DHT22;5192;50.328;7.610;2023-03-17T14:10:57;15.30;1.00
10294;DHT22;5192;50.328;7.610;2023-03-17T14:13:53;15.20;1.00
10294;DHT22;5192;50.328;7.610;2023-03-17T14:16:35;15.20;1.00
10294;DHT22;5192;50.328;7.610;2023-03-17T14:19:28;15.30;1.00
10294;DHT22;5192;50.328;7.610;2023-03-17T14:22:18;15.20;1.00
10294;DHT22;5192;50.328;7.610;2023-03-17T14:24:54;15.30;1.00
10294;DHT22;5192;50.328;7.610;2023-03-17T14:27:29;15.30;1.00
10294;DHT22;5192;50.328;7.610;2023-03-17T14:30:20;15.20;1.00
10294;DHT22;5192;50.328;7.610;2023-03-17T14:35:42;15.10;1.00
10294;DHT22;5192;50.328;7.610;2023-03-17T14:44:04;15.00;1.00
10294;DHT22;5192;50.328;7.610;2023-03-17T14:46:36;15.00;1.00
10294;DHT22;5192;50.328;7.610;2023-03-17T14:49:21;15.30;1.00
10294;DHT22;5192;50.328;7.610;2023-03-17T14:51:50;14.90;1.00
10294;DHT22;5192;50.328;7.610;2023-03-17T14:54:31;14.90;1.00
10294;DHT22;5192;50.328;7.610;2023-03-17T14:57:11;14.90;1.00
10294;DHT22;5192;50.328;7.610;2023-03-17T14:59:54;14.90;1.00
10294;DHT22;5192;50.328;7.610;2023-03-17T15:02:40;14.90;1.00
10294;DHT22;5192;50.328;7.610;2023-03-17T15:11:36;14.70;1.00
10294;DHT22;5192;50.328;7.610;2023-03-17T15:14:10;14.70;1.00
10294;DHT22;5192;50.328;7.610;2023-03-17T15:16:46;14.50;1.00
10294;DHT22;5192;50.328;7.610;2023-03-17T15:19:18;14.40;1.00
10294;DHT22;5192;50.328;7.610;2023-03-17T15:21:56;14.50;1.00
10294;DHT22;5192;50.328;7.610;2023-03-17T15:24:42;14.50;1.00
10294;DHT22;5192;50.328;7.610;2023-03-17T15:29:57;14.30;1.00
10294;DHT22;5192;50.328;7.610;2023-03-17T15:32:25;14.30;1.00
10294;DHT22;5192;50.328;7.610;2023-03-17T15:34:54;14.20;1.00
10294;DHT22;5192;50.328;7.610;2023-03-17T15:37:44;14.20;1.00
10294;DHT22;5192;50.328;7.610;2023-03-17T15:40:22;14.30;1.00
10294;DHT22;5192;50.328;7.610;2023-03-17T15:42:50;14.10;1.00
10294;DHT22;5192;50.328;7.610;2023-03-17T15:45:18;14.10;1.00
10294;DHT22;5192;50.328;7.610;2023-03-17T15:47:47;14.20;1.00
10294;DHT22;5192;50.328;7.610;2023-03-17T15:50:32;14.10;1.00
10294;DHT22;5192;50.328;7.610;2023-03-17T15:52:59;14.00;1.00
10294;DHT22;5192;50.328;7.610;2023-03-17T15:55:28;14.00;1.00
10294;DHT22;5192;50.328;7.610;2023-03-17T15:57:55;14.10;1.00
10294;DHT22;5192;50.328;7.610;2023-03-17T16:00:24;13.90;1.00
10294;DHT22;5192;50.328;7.610;2023-03-17T16:03:02;13.90;1.00
10294;DHT22;5192;50.328;7.610;2023-03-17T16:05:35;13.90;1.00
10294;DHT22;5192;50.328;7.610;2023-03-17T16:08:03;13.90;1.00
10294;DHT22;5192;50.328;7.610;2023-03-17T16:10:31;13.80;1.00
10294;DHT22;5192;50.328;7.610;2023-03-17T16:12:58;13.80;1.00
10294;DHT22;5192;50.328;7.610;2023-03-17T16:15:30;13.70;1.00
10294;DHT22;5192;50.328;7.610;2023-03-17T16:18:02;13.70;1.00
10294;DHT22;5192;50.328;7.610;2023-03-17T16:20:48;13.60;1.00
10294;DHT22;5192;50.328;7.610;2023-03-17T16:23:21;13.50;1.00
10294;DHT22;5192;50.328;7.610;2023-03-17T16:25:51;13.50;1.00
10294;DHT22;5192;50.328;7.610;2023-03-17T16:28:28;13.50;1.00
10294;DHT22;5192;50.328;7.610;2023-03-17T16:30:58;13.40;1.00
10294;DHT22;5192;50.328;7.610;2023-03-17T16:33:52;13.40;1.00
10294;DHT22;5192;50.328;7.610;2023-03-17T16:36:20;13.40;1.00
10294;DHT22;5192;50.328;7.610;2023-03-17T16:38:48;13.40;1.00
10294;DHT22;5192;50.328;7.610;2023-03-17T16:41:21;13.40;1.00
10294;DHT22;5192;50.328;7.610;2023-03-17T16:43:52;13.40;1.00
10294;DHT22;5192;50.328;7.610;2023-03-17T16:46:21;13.40;1.00
10294;DHT22;5192;50.328;7.610;2023-03-17T16:48:50;13.40;1.00
10294;DHT22;5192;50.328;7.610;2023-03-17T16:51:18;13.30;1.00
10294;DHT22;5192;50.328;7.610;2023-03-17T16:53:46;13.20;1.00
10294;DHT22;5192;50.328;7.610;2023-03-17T16:56:15;13.20;1.00
10294;DHT22;5192;50.328;7.610;2023-03-17T16:58:44;13.10;1.00
10294;DHT22;5192;50.328;7.610;2023-03-17T17:01:20;13.10;1.00
10294;DHT22;5192;50.328;7.610;2023-03-17T17:03:48;13.10;1.00
10294;DHT22;5192;50.328;7.610;2023-03-17T17:06:15;13.00;1.00
10294;DHT22;5192;50.328;7.610;2023-03-17T17:08:44;13.00;1.00
10294;DHT22;5192;50.328;7.610;2023-03-17T17:11:12;12.80;1.00
10294;DHT22;5192;50.328;7.610;2023-03-17T17:13:40;12.80;1.00
10294;DHT22;5192;50.328;7.610;2023-03-17T17:16:32;12.80;1.00
10294;DHT22;5192;50.328;7.610;2023-03-17T17:18:57;12.80;1.00
10294;DHT22;5192;50.328;7.610;2023-03-17T17:21:26;12.70;1.00
10294;DHT22;5192;50.328;7.610;2023-03-17T17:23:54;12.70;1.00
10294;DHT22;5192;50.328;7.610;2023-03-17T17:26:21;12.60;1.00
10294;DHT22;5192;50.328;7.610;2023-03-17T17:28:47;12.50;1.00
10294;DHT22;5192;50.328;7.610;2023-03-17T17:31:14;12.50;1.00
10294;DHT22;5192;50.328;7.610;2023-03-17T17:33:39;12.50;1.00
10294;DHT22;5192;50.328;7.610;2023-03-17T17:36:14;12.40;1.00
10294;DHT22;5192;50.328;7.610;2023-03-17T17:38:44;12.40;1.00
10294;DHT22;5192;50.328;7.610;2023-03-17T17:41:13;12.30;1.00
10294;DHT22;5192;50.328;7.610;2023-03-17T17:43:42;12.30;1.00
10294;DHT22;5192;50.328;7.610;2023-03-17T17:46:17;12.30;1.00
10294;DHT22;5192;50.328;7.610;2023-03-17T17:48:44;12.20;1.00
10294;DHT22;5192;50.328;7.610;2023-03-17T17:51:12;12.10;1.00
10294;DHT22;5192;50.328;7.610;2023-03-17T17:53:40;12.10;1.00
10294;DHT22;5192;50.328;7.610;2023-03-17T17:56:14;12.10;1.00
10294;DHT22;5192;50.328;7.610;2023-03-17T17:58:42;12.00;1.00
10294;DHT22;5192;50.328;7.610;2023-03-17T18:01:10;12.00;1.00
10294;DHT22;5192;50.328;7.610;2023-03-17T18:03:40;12.00;1.00
10294;DHT22;5192;50.328;7.610;2023-03-17T18:06:09;11.90;1.00
10294;DHT22;5192;50.328;7.610;2023-03-17T18:08:38;11.90;1.00
10294;DHT22;5192;50.328;7.610;2023-03-17T18:11:04;11.90;1.00
10294;DHT22;5192;50.328;7.610;2023-03-17T18:13:31;12.00;1.00
10294;DHT22;5192;50.328;7.610;2023-03-17T18:16:00;11.90;1.00
10294;DHT22;5192;50.328;7.610;2023-03-17T18:18:27;11.90;1.00
10294;DHT22;5192;50.328;7.610;2023-03-17T18:20:54;11.90;1.00
10294;DHT22;5192;50.328;7.610;2023-03-17T18:23:21;11.90;1.00
10294;DHT22;5192;50.328;7.610;2023-03-17T18:25:49;12.00;1.00